»·PEaware :: N2156H KSNA-KCRQ

N2156H :: KSNA-KCRQ

FLIGHT INFORMATION

Flight Status: Arrived
Operator: Privately registered:
United States
More flights under this callsign
Pilot: Thaddeus H. (26786)
Aircraft: CESSNA 172 SKYHAWK
(C172)
More flights by this aircraft type
Origin: KSNA John Wayne-Orange Co
United States
Destination: KCRQ McClellan-Palomar
United States
More flights between these airports :: More routes between these airports
Route:
File this flight plan on PilotEdge
Remarks:
Altitude:
(Current/Filed)
5,500ft
Speed:
(Current/Filed)
110kts
Departed: 11-Nov-19 04:12 PM
Arrived: 11-Nov-19 04:39 PM
Distance/Time
Traveled:
44nm/0:27
Distance/Time
To Go:
Arrived

Flight Plot

Page will automatically refresh every two minutes.


Map Options




Map Legend


Flown Route
Filed Route
Departure Airport
Arrival Airport
Navaid (VOR, NDB)
Fix

Horizontal Profiles

Position Reports

Time Latitude Longitude Heading Altitude Ground
Speed
11-Nov-19 15:50 33.667170 -117.872135 225 60ft 0kts
11-Nov-19 15:51 33.667170 -117.872135 225 60ft 0kts
11-Nov-19 15:52 33.667170 -117.872135 225 60ft 0kts
11-Nov-19 15:53 33.667170 -117.872135 225 60ft 0kts
11-Nov-19 15:54 33.667170 -117.872135 225 60ft 0kts
11-Nov-19 15:55 33.667170 -117.872135 225 60ft 0kts
11-Nov-19 15:56 33.667170 -117.872135 225 60ft 0kts
11-Nov-19 15:57 33.667170 -117.872135 225 60ft 0kts
11-Nov-19 15:58 33.667170 -117.872135 225 60ft 0kts
11-Nov-19 15:59 33.667170 -117.872135 225 60ft 0kts
11-Nov-19 16:00 33.667170 -117.872135 225 60ft 0kts
11-Nov-19 16:01 33.667170 -117.872135 225 60ft 0kts
11-Nov-19 16:02 33.667170 -117.872135 225 60ft 0kts
11-Nov-19 16:03 33.667170 -117.872135 225 60ft 0kts
11-Nov-19 16:04 33.667170 -117.872135 225 60ft 0kts
11-Nov-19 16:05 33.667170 -117.872135 225 60ft 0kts
11-Nov-19 16:06 33.667369 -117.872497 25 60ft 5kts
11-Nov-19 16:06 33.669683 -117.870341 40 60ft 21kts
11-Nov-19 16:07 33.674168 -117.867051 26 60ft 11kts
11-Nov-19 16:09 33.679629 -117.863571 31 60ft 4kts
11-Nov-19 16:09 33.679971 -117.863630 295 60ft 0kts
11-Nov-19 16:10 33.680059 -117.864138 239 60ft 10kts
11-Nov-19 16:12 33.661339 -117.874558 173 833ft 80kts
11-Nov-19 16:12 33.643288 -117.864485 158 1435ft 88kts
11-Nov-19 16:13 33.617121 -117.850761 160 1528ft 114kts
11-Nov-19 16:14 33.587154 -117.836643 162 1487ft 113kts
11-Nov-19 16:15 33.560739 -117.820411 122 1757ft 104kts
11-Nov-19 16:16 33.546166 -117.787569 118 2423ft 113kts
11-Nov-19 16:17 33.531236 -117.754270 118 3126ft 113kts
11-Nov-19 16:18 33.516172 -117.721526 118 3829ft 111kts
11-Nov-19 16:19 33.501398 -117.690457 118 4627ft 106kts
11-Nov-19 16:20 33.479772 -117.666151 139 5377ft 112kts
11-Nov-19 16:21 33.454418 -117.638828 136 5517ft 128kts
11-Nov-19 16:22 33.427758 -117.609655 136 5523ft 130kts
11-Nov-19 16:23 33.400852 -117.580275 136 5528ft 130kts
11-Nov-19 16:24 33.374004 -117.550791 136 5534ft 130kts
11-Nov-19 16:25 33.347282 -117.521258 136 5540ft 131kts
11-Nov-19 16:26 33.320412 -117.491356 136 5514ft 132kts
11-Nov-19 16:27 33.293728 -117.461440 136 5314ft 130kts
11-Nov-19 16:28 33.268574 -117.432565 136 4542ft 120kts
11-Nov-19 16:29 33.245536 -117.405265 136 3744ft 110kts
11-Nov-19 16:30 33.224240 -117.379324 136 2951ft 110kts
11-Nov-19 16:31 33.203160 -117.353320 136 2676ft 104kts
11-Nov-19 16:32 33.183649 -117.329159 136 2323ft 101kts
11-Nov-19 16:33 33.165476 -117.306691 136 1768ft 102kts
11-Nov-19 16:34 33.144966 -117.286737 146 1475ft 91kts
11-Nov-19 16:35 33.143298 -117.260056 75 1298ft 79kts
11-Nov-19 16:36 33.133149 -117.253159 245 958ft 66kts
11-Nov-19 16:37 33.129385 -117.273062 259 359ft 60kts
11-Nov-19 16:38 33.127422 -117.282731 228 335ft 6kts
11-Nov-19 16:39 33.126975 -117.283334 230 335ft 0kts
11-Nov-19 16:40 33.127177 -117.281674 78 335ft 13kts
11-Nov-19 16:41 33.128169 -117.275531 87 335ft 9kts

Navigation Log

Ident Type
Flight plan parsing failed, navigation log unavailable